sensor_id;sensor_type;location;lat;lon;timestamp;P1;durP1;ratioP1;P2;durP2;ratioP2
50988;SDS011;37008;52.210;21.112;2023-12-14T00:00:18;118.70;;;46.47;;
50988;SDS011;37008;52.210;21.112;2023-12-14T00:02:44;121.90;;;45.50;;
50988;SDS011;37008;52.210;21.112;2023-12-14T00:05:10;114.75;;;39.83;;
50988;SDS011;37008;52.210;21.112;2023-12-14T00:07:35;126.13;;;47.17;;
50988;SDS011;37008;52.210;21.112;2023-12-14T00:10:01;132.57;;;46.65;;
50988;SDS011;37008;52.210;21.112;2023-12-14T00:12:28;128.77;;;45.75;;
50988;SDS011;37008;52.210;21.112;2023-12-14T00:14:54;130.90;;;46.35;;
50988;SDS011;37008;52.210;21.112;2023-12-14T00:17:19;127.82;;;46.17;;
50988;SDS011;37008;52.210;21.112;2023-12-14T00:19:45;104.20;;;40.05;;
50988;SDS011;37008;52.210;21.112;2023-12-14T00:22:11;111.88;;;40.50;;
50988;SDS011;37008;52.210;21.112;2023-12-14T00:24:36;127.95;;;46.13;;
50988;SDS011;37008;52.210;21.112;2023-12-14T00:27:02;140.77;;;45.85;;
50988;SDS011;37008;52.210;21.112;2023-12-14T00:29:28;123.07;;;45.50;;
50988;SDS011;37008;52.210;21.112;2023-12-14T00:31:53;135.23;;;44.65;;
50988;SDS011;37008;52.210;21.112;2023-12-14T00:34:19;127.25;;;43.00;;
50988;SDS011;37008;52.210;21.112;2023-12-14T00:36:44;111.50;;;42.70;;
50988;SDS011;37008;52.210;21.112;2023-12-14T00:39:10;109.57;;;39.13;;
50988;SDS011;37008;52.210;21.112;2023-12-14T00:41:36;135.13;;;44.17;;
50988;SDS011;37008;52.210;21.112;2023-12-14T00:44:01;105.88;;;40.38;;
50988;SDS011;37008;52.210;21.112;2023-12-14T00:46:27;103.63;;;39.65;;
50988;SDS011;37008;52.210;21.112;2023-12-14T00:48:53;109.50;;;40.90;;
50988;SDS011;37008;52.210;21.112;2023-12-14T00:51:18;105.85;;;41.80;;
50988;SDS011;37008;52.210;21.112;2023-12-14T00:53:44;90.55;;;37.72;;
50988;SDS011;37008;52.210;21.112;2023-12-14T00:56:10;115.43;;;41.50;;
50988;SDS011;37008;52.210;21.112;2023-12-14T00:58:35;107.63;;;39.83;;
50988;SDS011;37008;52.210;21.112;2023-12-14T01:01:01;107.90;;;37.63;;
50988;SDS011;37008;52.210;21.112;2023-12-14T01:03:27;91.03;;;34.63;;
50988;SDS011;37008;52.210;21.112;2023-12-14T01:05:52;64.85;;;26.10;;
50988;SDS011;37008;52.210;21.112;2023-12-14T01:08:18;95.68;;;37.80;;
50988;SDS011;37008;52.210;21.112;2023-12-14T01:10:44;108.65;;;38.67;;
50988;SDS011;37008;52.210;21.112;2023-12-14T01:13:09;118.43;;;40.97;;
50988;SDS011;37008;52.210;21.112;2023-12-14T01:15:35;119.05;;;42.38;;
50988;SDS011;37008;52.210;21.112;2023-12-14T01:18:01;107.47;;;36.35;;
50988;SDS011;37008;52.210;21.112;2023-12-14T01:20:26;101.03;;;34.25;;
50988;SDS011;37008;52.210;21.112;2023-12-14T01:22:52;102.60;;;37.33;;
50988;SDS011;37008;52.210;21.112;2023-12-14T01:25:18;102.63;;;38.30;;
50988;SDS011;37008;52.210;21.112;2023-12-14T01:27:43;68.15;;;23.83;;
50988;SDS011;37008;52.210;21.112;2023-12-14T01:30:09;98.68;;;36.10;;
50988;SDS011;37008;52.210;21.112;2023-12-14T01:32:35;97.07;;;35.33;;
50988;SDS011;37008;52.210;21.112;2023-12-14T01:35:01;112.50;;;37.78;;
50988;SDS011;37008;52.210;21.112;2023-12-14T01:37:27;92.30;;;34.90;;
50988;SDS011;37008;52.210;21.112;2023-12-14T01:39:52;80.28;;;31.38;;
50988;SDS011;37008;52.210;21.112;2023-12-14T01:42:18;97.63;;;34.33;;
50988;SDS011;37008;52.210;21.112;2023-12-14T01:44:44;101.57;;;34.10;;
50988;SDS011;37008;52.210;21.112;2023-12-14T01:47:09;112.78;;;36.55;;
50988;SDS011;37008;52.210;21.112;2023-12-14T01:49:35;95.13;;;32.50;;
50988;SDS011;37008;52.210;21.112;2023-12-14T01:52:00;131.52;;;35.58;;
50988;SDS011;37008;52.210;21.112;2023-12-14T01:54:26;106.07;;;33.78;;
50988;SDS011;37008;52.210;21.112;2023-12-14T01:56:52;103.57;;;33.15;;
50988;SDS011;37008;52.210;21.112;2023-12-14T01:59:19;105.18;;;35.03;;
50988;SDS011;37008;52.210;21.112;2023-12-14T02:01:45;108.78;;;34.75;;
50988;SDS011;37008;52.210;21.112;2023-12-14T02:04:12;86.97;;;32.25;;
50988;SDS011;37008;52.210;21.112;2023-12-14T02:06:39;91.63;;;32.55;;
50988;SDS011;37008;52.210;21.112;2023-12-14T02:09:05;88.30;;;31.45;;
50988;SDS011;37008;52.210;21.112;2023-12-14T02:11:31;82.30;;;31.17;;
50988;SDS011;37008;52.210;21.112;2023-12-14T02:13:57;89.47;;;31.67;;
50988;SDS011;37008;52.210;21.112;2023-12-14T02:16:22;63.53;;;21.50;;
50988;SDS011;37008;52.210;21.112;2023-12-14T02:18:48;78.40;;;28.10;;
50988;SDS011;37008;52.210;21.112;2023-12-14T02:21:14;94.63;;;33.05;;
50988;SDS011;37008;52.210;21.112;2023-12-14T02:23:43;75.47;;;27.70;;
50988;SDS011;37008;52.210;21.112;2023-12-14T02:26:10;84.70;;;30.33;;
50988;SDS011;37008;52.210;21.112;2023-12-14T02:28:36;77.30;;;29.75;;
50988;SDS011;37008;52.210;21.112;2023-12-14T02:31:02;84.32;;;31.85;;
50988;SDS011;37008;52.210;21.112;2023-12-14T02:33:28;94.40;;;32.00;;
50988;SDS011;37008;52.210;21.112;2023-12-14T02:35:53;104.22;;;32.10;;
50988;SDS011;37008;52.210;21.112;2023-12-14T02:38:19;89.03;;;32.17;;
50988;SDS011;37008;52.210;21.112;2023-12-14T02:40:44;92.38;;;31.02;;
50988;SDS011;37008;52.210;21.112;2023-12-14T02:43:10;84.72;;;31.50;;
50988;SDS011;37008;52.210;21.112;2023-12-14T02:45:36;72.25;;;28.13;;
50988;SDS011;37008;52.210;21.112;2023-12-14T02:48:01;87.93;;;30.80;;
50988;SDS011;37008;52.210;21.112;2023-12-14T02:50:27;87.10;;;32.05;;
50988;SDS011;37008;52.210;21.112;2023-12-14T02:52:52;87.43;;;32.40;;
50988;SDS011;37008;52.210;21.112;2023-12-14T02:55:18;98.90;;;32.83;;
50988;SDS011;37008;52.210;21.112;2023-12-14T02:57:44;93.10;;;31.20;;
50988;SDS011;37008;52.210;21.112;2023-12-14T03:00:10;106.10;;;33.63;;
50988;SDS011;37008;52.210;21.112;2023-12-14T03:02:36;106.35;;;33.72;;
50988;SDS011;37008;52.210;21.112;2023-12-14T03:05:02;111.07;;;32.97;;
50988;SDS011;37008;52.210;21.112;2023-12-14T03:07:28;95.85;;;30.42;;
50988;SDS011;37008;52.210;21.112;2023-12-14T03:09:53;104.47;;;32.38;;
50988;SDS011;37008;52.210;21.112;2023-12-14T03:12:19;92.63;;;29.67;;
50988;SDS011;37008;52.210;21.112;2023-12-14T03:14:45;117.63;;;35.03;;
50988;SDS011;37008;52.210;21.112;2023-12-14T03:17:10;137.80;;;33.60;;
50988;SDS011;37008;52.210;21.112;2023-12-14T03:19:40;115.22;;;34.30;;
50988;SDS011;37008;52.210;21.112;2023-12-14T03:22:07;107.85;;;32.40;;
50988;SDS011;37008;52.210;21.112;2023-12-14T03:24:33;135.77;;;35.17;;
50988;SDS011;37008;52.210;21.112;2023-12-14T03:26:59;113.55;;;33.97;;
50988;SDS011;37008;52.210;21.112;2023-12-14T03:29:25;108.47;;;31.80;;
50988;SDS011;37008;52.210;21.112;2023-12-14T03:31:52;124.55;;;34.55;;
50988;SDS011;37008;52.210;21.112;2023-12-14T03:34:17;128.60;;;34.50;;
50988;SDS011;37008;52.210;21.112;2023-12-14T03:36:43;155.55;;;35.38;;
50988;SDS011;37008;52.210;21.112;2023-12-14T03:39:09;143.02;;;35.92;;
50988;SDS011;37008;52.210;21.112;2023-12-14T03:41:35;117.07;;;34.42;;
50988;SDS011;37008;52.210;21.112;2023-12-14T03:44:00;98.18;;;27.42;;
50988;SDS011;37008;52.210;21.112;2023-12-14T03:46:26;113.32;;;33.35;;
50988;SDS011;37008;52.210;21.112;2023-12-14T03:48:52;125.60;;;34.22;;
50988;SDS011;37008;52.210;21.112;2023-12-14T03:51:18;114.80;;;32.13;;
50988;SDS011;37008;52.210;21.112;2023-12-14T03:53:44;87.20;;;27.10;;
50988;SDS011;37008;52.210;21.112;2023-12-14T03:56:10;89.50;;;29.38;;
50988;SDS011;37008;52.210;21.112;2023-12-14T03:58:36;76.53;;;26.63;;
50988;SDS011;37008;52.210;21.112;2023-12-14T04:01:01;79.78;;;26.40;;
50988;SDS011;37008;52.210;21.112;2023-12-14T04:03:27;97.63;;;30.17;;
50988;SDS011;37008;52.210;21.112;2023-12-14T04:05:54;107.05;;;29.27;;
50988;SDS011;37008;52.210;21.112;2023-12-14T04:08:19;90.50;;;30.27;;
50988;SDS011;37008;52.210;21.112;2023-12-14T04:10:45;86.82;;;28.75;;
50988;SDS011;37008;52.210;21.112;2023-12-14T04:13:10;89.60;;;30.08;;
50988;SDS011;37008;52.210;21.112;2023-12-14T04:15:36;71.32;;;24.55;;
50988;SDS011;37008;52.210;21.112;2023-12-14T04:18:02;86.05;;;28.05;;
50988;SDS011;37008;52.210;21.112;2023-12-14T04:20:28;89.20;;;29.80;;
50988;SDS011;37008;52.210;21.112;2023-12-14T04:22:53;84.15;;;27.75;;
50988;SDS011;37008;52.210;21.112;2023-12-14T04:25:19;87.63;;;30.30;;
50988;SDS011;37008;52.210;21.112;2023-12-14T04:27:45;88.65;;;29.73;;
50988;SDS011;37008;52.210;21.112;2023-12-14T04:30:11;119.10;;;31.27;;
50988;SDS011;37008;52.210;21.112;2023-12-14T04:32:39;94.47;;;29.98;;
50988;SDS011;37008;52.210;21.112;2023-12-14T04:35:05;94.55;;;29.70;;
50988;SDS011;37008;52.210;21.112;2023-12-14T04:37:31;92.18;;;30.27;;
50988;SDS011;37008;52.210;21.112;2023-12-14T04:39:57;95.82;;;30.10;;
50988;SDS011;37008;52.210;21.112;2023-12-14T04:42:23;97.10;;;29.92;;
50988;SDS011;37008;52.210;21.112;2023-12-14T04:44:48;100.95;;;29.67;;
50988;SDS011;37008;52.210;21.112;2023-12-14T04:47:14;94.88;;;30.27;;
50988;SDS011;37008;52.210;21.112;2023-12-14T04:49:40;83.65;;;28.23;;
50988;SDS011;37008;52.210;21.112;2023-12-14T04:52:05;98.97;;;29.80;;
50988;SDS011;37008;52.210;21.112;2023-12-14T04:54:31;99.68;;;30.48;;
50988;SDS011;37008;52.210;21.112;2023-12-14T04:56:58;90.57;;;30.00;;
50988;SDS011;37008;52.210;21.112;2023-12-14T04:59:23;91.20;;;31.70;;
50988;SDS011;37008;52.210;21.112;2023-12-14T05:01:49;94.57;;;29.10;;
50988;SDS011;37008;52.210;21.112;2023-12-14T05:04:14;86.38;;;28.10;;
50988;SDS011;37008;52.210;21.112;2023-12-14T05:06:40;83.38;;;27.00;;
50988;SDS011;37008;52.210;21.112;2023-12-14T05:09:06;94.18;;;28.63;;
50988;SDS011;37008;52.210;21.112;2023-12-14T05:11:32;107.20;;;30.17;;
50988;SDS011;37008;52.210;21.112;2023-12-14T05:13:57;91.00;;;28.15;;
50988;SDS011;37008;52.210;21.112;2023-12-14T05:16:23;113.30;;;30.75;;
50988;SDS011;37008;52.210;21.112;2023-12-14T05:18:55;102.43;;;31.10;;
50988;SDS011;37008;52.210;21.112;2023-12-14T05:21:22;85.35;;;28.65;;
50988;SDS011;37008;52.210;21.112;2023-12-14T05:23:47;94.07;;;28.38;;
50988;SDS011;37008;52.210;21.112;2023-12-14T05:26:13;101.03;;;29.70;;
50988;SDS011;37008;52.210;21.112;2023-12-14T05:28:39;101.65;;;29.00;;
50988;SDS011;37008;52.210;21.112;2023-12-14T05:31:05;96.43;;;29.23;;
50988;SDS011;37008;52.210;21.112;2023-12-14T05:33:31;97.95;;;29.60;;
50988;SDS011;37008;52.210;21.112;2023-12-14T05:35:58;107.30;;;31.15;;
50988;SDS011;37008;52.210;21.112;2023-12-14T05:38:24;97.95;;;29.48;;
50988;SDS011;37008;52.210;21.112;2023-12-14T05:40:50;94.30;;;29.90;;
50988;SDS011;37008;52.210;21.112;2023-12-14T05:43:15;109.72;;;29.98;;
50988;SDS011;37008;52.210;21.112;2023-12-14T05:45:41;104.25;;;29.13;;
50988;SDS011;37008;52.210;21.112;2023-12-14T05:48:07;106.10;;;28.95;;
50988;SDS011;37008;52.210;21.112;2023-12-14T05:50:32;103.85;;;29.13;;
50988;SDS011;37008;52.210;21.112;2023-12-14T05:52:58;104.93;;;29.73;;
50988;SDS011;37008;52.210;21.112;2023-12-14T05:55:23;112.50;;;30.42;;
50988;SDS011;37008;52.210;21.112;2023-12-14T05:57:49;100.43;;;29.65;;
50988;SDS011;37008;52.210;21.112;2023-12-14T06:00:15;110.38;;;31.30;;
50988;SDS011;37008;52.210;21.112;2023-12-14T06:02:41;129.02;;;31.85;;
50988;SDS011;37008;52.210;21.112;2023-12-14T06:05:07;106.22;;;31.48;;
50988;SDS011;37008;52.210;21.112;2023-12-14T06:07:33;106.03;;;31.05;;
50988;SDS011;37008;52.210;21.112;2023-12-14T06:09:58;122.72;;;30.65;;
50988;SDS011;37008;52.210;21.112;2023-12-14T06:12:25;122.65;;;30.50;;
50988;SDS011;37008;52.210;21.112;2023-12-14T06:14:52;128.63;;;31.40;;
50988;SDS011;37008;52.210;21.112;2023-12-14T06:17:17;114.32;;;30.55;;
50988;SDS011;37008;52.210;21.112;2023-12-14T06:19:43;120.22;;;31.63;;
50988;SDS011;37008;52.210;21.112;2023-12-14T06:22:09;128.50;;;31.73;;
50988;SDS011;37008;52.210;21.112;2023-12-14T06:24:34;125.88;;;33.00;;
50988;SDS011;37008;52.210;21.112;2023-12-14T06:27:00;118.10;;;31.73;;
50988;SDS011;37008;52.210;21.112;2023-12-14T06:29:26;120.90;;;31.52;;
50988;SDS011;37008;52.210;21.112;2023-12-14T06:31:51;137.75;;;31.25;;
50988;SDS011;37008;52.210;21.112;2023-12-14T06:34:17;99.25;;;30.60;;
50988;SDS011;37008;52.210;21.112;2023-12-14T06:36:43;93.25;;;26.88;;
50988;SDS011;37008;52.210;21.112;2023-12-14T06:39:10;96.80;;;29.33;;
50988;SDS011;37008;52.210;21.112;2023-12-14T06:41:36;101.65;;;28.75;;
50988;SDS011;37008;52.210;21.112;2023-12-14T06:44:01;116.57;;;31.23;;
50988;SDS011;37008;52.210;21.112;2023-12-14T06:46:27;92.07;;;28.05;;
50988;SDS011;37008;52.210;21.112;2023-12-14T06:48:54;92.70;;;28.02;;
50988;SDS011;37008;52.210;21.112;2023-12-14T06:51:20;90.65;;;28.10;;
50988;SDS011;37008;52.210;21.112;2023-12-14T06:53:47;85.80;;;27.63;;
50988;SDS011;37008;52.210;21.112;2023-12-14T06:56:12;87.63;;;26.15;;
50988;SDS011;37008;52.210;21.112;2023-12-14T06:58:42;90.28;;;27.83;;
50988;SDS011;37008;52.210;21.112;2023-12-14T07:01:12;92.53;;;30.17;;
50988;SDS011;37008;52.210;21.112;2023-12-14T07:03:41;95.68;;;28.73;;
50988;SDS011;37008;52.210;21.112;2023-12-14T07:06:11;96.43;;;29.05;;
50988;SDS011;37008;52.210;21.112;2023-12-14T07:08:37;106.13;;;31.88;;
50988;SDS011;37008;52.210;21.112;2023-12-14T07:11:04;94.88;;;30.02;;
50988;SDS011;37008;52.210;21.112;2023-12-14T07:13:30;84.07;;;27.25;;
50988;SDS011;37008;52.210;21.112;2023-12-14T07:15:56;84.90;;;28.05;;
50988;SDS011;37008;52.210;21.112;2023-12-14T07:18:22;100.93;;;31.60;;
50988;SDS011;37008;52.210;21.112;2023-12-14T07:20:47;104.07;;;30.90;;
50988;SDS011;37008;52.210;21.112;2023-12-14T07:23:13;102.35;;;30.92;;
50988;SDS011;37008;52.210;21.112;2023-12-14T07:25:38;89.47;;;28.52;;
50988;SDS011;37008;52.210;21.112;2023-12-14T07:28:04;84.97;;;26.48;;
50988;SDS011;37008;52.210;21.112;2023-12-14T07:30:30;92.47;;;28.42;;
50988;SDS011;37008;52.210;21.112;2023-12-14T07:32:55;82.72;;;26.17;;
50988;SDS011;37008;52.210;21.112;2023-12-14T07:35:21;102.32;;;31.23;;
50988;SDS011;37008;52.210;21.112;2023-12-14T07:37:48;118.78;;;33.50;;
50988;SDS011;37008;52.210;21.112;2023-12-14T07:40:14;126.03;;;35.40;;
50988;SDS011;37008;52.210;21.112;2023-12-14T07:42:39;127.60;;;36.13;;
50988;SDS011;37008;52.210;21.112;2023-12-14T07:45:05;148.82;;;36.67;;
50988;SDS011;37008;52.210;21.112;2023-12-14T07:47:33;124.68;;;37.15;;
50988;SDS011;37008;52.210;21.112;2023-12-14T07:49:59;132.77;;;36.75;;
50988;SDS011;37008;52.210;21.112;2023-12-14T07:52:24;128.07;;;36.17;;
50988;SDS011;37008;52.210;21.112;2023-12-14T07:54:50;111.72;;;35.20;;
50988;SDS011;37008;52.210;21.112;2023-12-14T07:57:15;134.20;;;35.38;;
50988;SDS011;37008;52.210;21.112;2023-12-14T07:59:42;114.35;;;33.97;;
50988;SDS011;37008;52.210;21.112;2023-12-14T08:02:08;130.82;;;35.28;;
50988;SDS011;37008;52.210;21.112;2023-12-14T08:04:33;108.43;;;35.58;;
50988;SDS011;37008;52.210;21.112;2023-12-14T08:06:59;114.60;;;34.97;;
50988;SDS011;37008;52.210;21.112;2023-12-14T08:09:24;107.32;;;33.38;;
50988;SDS011;37008;52.210;21.112;2023-12-14T08:11:50;115.00;;;33.90;;
50988;SDS011;37008;52.210;21.112;2023-12-14T08:14:17;101.97;;;31.60;;
50988;SDS011;37008;52.210;21.112;2023-12-14T08:16:43;102.35;;;30.70;;
50988;SDS011;37008;52.210;21.112;2023-12-14T08:19:08;86.93;;;29.17;;
50988;SDS011;37008;52.210;21.112;2023-12-14T08:21:34;99.28;;;30.98;;
50988;SDS011;37008;52.210;21.112;2023-12-14T08:24:00;98.18;;;31.88;;
50988;SDS011;37008;52.210;21.112;2023-12-14T08:26:25;114.05;;;32.63;;
50988;SDS011;37008;52.210;21.112;2023-12-14T08:28:51;79.03;;;30.13;;
50988;SDS011;37008;52.210;21.112;2023-12-14T08:31:16;81.22;;;28.75;;
50988;SDS011;37008;52.210;21.112;2023-12-14T08:33:42;79.68;;;29.55;;
50988;SDS011;37008;52.210;21.112;2023-12-14T08:36:08;85.90;;;30.33;;
50988;SDS011;37008;52.210;21.112;2023-12-14T08:38:33;91.65;;;32.67;;
50988;SDS011;37008;52.210;21.112;2023-12-14T08:40:59;94.00;;;32.20;;
50988;SDS011;37008;52.210;21.112;2023-12-14T08:43:25;86.10;;;30.45;;
50988;SDS011;37008;52.210;21.112;2023-12-14T08:45:51;94.57;;;30.70;;
50988;SDS011;37008;52.210;21.112;2023-12-14T08:48:17;71.22;;;25.40;;
50988;SDS011;37008;52.210;21.112;2023-12-14T08:50:43;77.00;;;28.38;;
50988;SDS011;37008;52.210;21.112;2023-12-14T08:53:10;76.53;;;30.15;;
50988;SDS011;37008;52.210;21.112;2023-12-14T08:55:36;74.65;;;29.45;;
50988;SDS011;37008;52.210;21.112;2023-12-14T08:58:02;75.75;;;30.17;;
50988;SDS011;37008;52.210;21.112;2023-12-14T09:00:28;67.07;;;26.42;;
50988;SDS011;37008;52.210;21.112;2023-12-14T09:02:53;68.57;;;29.48;;
50988;SDS011;37008;52.210;21.112;2023-12-14T09:05:19;61.20;;;27.80;;
50988;SDS011;37008;52.210;21.112;2023-12-14T09:07:46;57.53;;;27.70;;
50988;SDS011;37008;52.210;21.112;2023-12-14T09:10:12;62.50;;;27.17;;
50988;SDS011;37008;52.210;21.112;2023-12-14T09:12:37;53.28;;;25.88;;
50988;SDS011;37008;52.210;21.112;2023-12-14T09:15:03;49.30;;;23.75;;
50988;SDS011;37008;52.210;21.112;2023-12-14T09:17:29;54.88;;;24.52;;
50988;SDS011;37008;52.210;21.112;2023-12-14T09:19:58;55.55;;;25.58;;
50988;SDS011;37008;52.210;21.112;2023-12-14T09:22:24;54.40;;;25.10;;
50988;SDS011;37008;52.210;21.112;2023-12-14T09:24:50;62.78;;;25.35;;
50988;SDS011;37008;52.210;21.112;2023-12-14T09:27:16;69.65;;;28.67;;
50988;SDS011;37008;52.210;21.112;2023-12-14T09:29:42;71.85;;;28.45;;
50988;SDS011;37008;52.210;21.112;2023-12-14T09:32:08;83.20;;;30.15;;
50988;SDS011;37008;52.210;21.112;2023-12-14T09:34:34;87.88;;;30.35;;
50988;SDS011;37008;52.210;21.112;2023-12-14T09:36:59;86.32;;;30.58;;
50988;SDS011;37008;52.210;21.112;2023-12-14T09:39:25;83.70;;;30.58;;
50988;SDS011;37008;52.210;21.112;2023-12-14T09:42:00;80.07;;;29.58;;
50988;SDS011;37008;52.210;21.112;2023-12-14T09:44:29;105.07;;;30.52;;
50988;SDS011;37008;52.210;21.112;2023-12-14T09:46:55;80.40;;;30.83;;
50988;SDS011;37008;52.210;21.112;2023-12-14T09:49:25;64.90;;;28.02;;
50988;SDS011;37008;52.210;21.112;2023-12-14T09:51:54;61.65;;;25.85;;
50988;SDS011;37008;52.210;21.112;2023-12-14T09:54:21;57.95;;;25.08;;
50988;SDS011;37008;52.210;21.112;2023-12-14T09:56:47;56.55;;;26.38;;
50988;SDS011;37008;52.210;21.112;2023-12-14T09:59:14;47.03;;;22.35;;
50988;SDS011;37008;52.210;21.112;2023-12-14T10:01:40;49.53;;;24.65;;
50988;SDS011;37008;52.210;21.112;2023-12-14T10:04:16;54.30;;;25.40;;
50988;SDS011;37008;52.210;21.112;2023-12-14T10:06:44;56.55;;;25.45;;
50988;SDS011;37008;52.210;21.112;2023-12-14T10:09:10;50.97;;;24.23;;
50988;SDS011;37008;52.210;21.112;2023-12-14T10:11:44;50.60;;;22.75;;
50988;SDS011;37008;52.210;21.112;2023-12-14T10:14:23;47.88;;;24.08;;
50988;SDS011;37008;52.210;21.112;2023-12-14T10:16:50;48.08;;;22.17;;
50988;SDS011;37008;52.210;21.112;2023-12-14T10:19:18;40.88;;;22.63;;
50988;SDS011;37008;52.210;21.112;2023-12-14T10:21:48;44.35;;;21.10;;
50988;SDS011;37008;52.210;21.112;2023-12-14T10:24:15;44.78;;;22.95;;
50988;SDS011;37008;52.210;21.112;2023-12-14T10:26:41;40.28;;;21.80;;
50988;SDS011;37008;52.210;21.112;2023-12-14T10:29:09;38.45;;;21.20;;
50988;SDS011;37008;52.210;21.112;2023-12-14T10:31:35;42.58;;;21.80;;
50988;SDS011;37008;52.210;21.112;2023-12-14T10:34:05;41.38;;;21.42;;
50988;SDS011;37008;52.210;21.112;2023-12-14T10:36:30;39.10;;;20.17;;
50988;SDS011;37008;52.210;21.112;2023-12-14T10:38:58;42.05;;;23.02;;
50988;SDS011;37008;52.210;21.112;2023-12-14T10:41:25;41.13;;;21.45;;
50988;SDS011;37008;52.210;21.112;2023-12-14T10:43:54;34.95;;;17.60;;
50988;SDS011;37008;52.210;21.112;2023-12-14T10:46:21;35.55;;;18.52;;
50988;SDS011;37008;52.210;21.112;2023-12-14T10:48:51;33.95;;;18.73;;
50988;SDS011;37008;52.210;21.112;2023-12-14T10:51:17;26.48;;;15.90;;
50988;SDS011;37008;52.210;21.112;2023-12-14T10:53:45;31.33;;;16.25;;
50988;SDS011;37008;52.210;21.112;2023-12-14T10:56:17;30.50;;;15.10;;
50988;SDS011;37008;52.210;21.112;2023-12-14T10:58:46;33.78;;;17.80;;
50988;SDS011;37008;52.210;21.112;2023-12-14T11:01:19;30.20;;;18.38;;
50988;SDS011;37008;52.210;21.112;2023-12-14T11:03:47;34.75;;;19.95;;
50988;SDS011;37008;52.210;21.112;2023-12-14T11:08:53;34.85;;;18.65;;
50988;SDS011;37008;52.210;21.112;2023-12-14T11:11:20;39.50;;;20.42;;
50988;SDS011;37008;52.210;21.112;2023-12-14T11:13:50;36.83;;;20.65;;
50988;SDS011;37008;52.210;21.112;2023-12-14T11:16:21;38.03;;;20.02;;
50988;SDS011;37008;52.210;21.112;2023-12-14T11:18:47;39.30;;;20.60;;
50988;SDS011;37008;52.210;21.112;2023-12-14T11:21:22;34.80;;;19.38;;
50988;SDS011;37008;52.210;21.112;2023-12-14T11:23:50;33.08;;;18.48;;
50988;SDS011;37008;52.210;21.112;2023-12-14T11:26:20;29.13;;;15.98;;
50988;SDS011;37008;52.210;21.112;2023-12-14T11:28:49;34.38;;;18.35;;
50988;SDS011;37008;52.210;21.112;2023-12-14T11:31:15;24.08;;;14.23;;
50988;SDS011;37008;52.210;21.112;2023-12-14T11:33:41;23.75;;;15.68;;
50988;SDS011;37008;52.210;21.112;2023-12-14T11:36:10;28.88;;;15.70;;
50988;SDS011;37008;52.210;21.112;2023-12-14T11:38:37;25.10;;;14.68;;
50988;SDS011;37008;52.210;21.112;2023-12-14T11:41:02;25.13;;;14.55;;
50988;SDS011;37008;52.210;21.112;2023-12-14T11:43:28;26.10;;;14.10;;
50988;SDS011;37008;52.210;21.112;2023-12-14T11:45:54;22.65;;;13.93;;
50988;SDS011;37008;52.210;21.112;2023-12-14T11:48:23;23.90;;;15.10;;
50988;SDS011;37008;52.210;21.112;2023-12-14T11:50:49;25.08;;;13.55;;
50988;SDS011;37008;52.210;21.112;2023-12-14T11:53:15;25.17;;;14.13;;
50988;SDS011;37008;52.210;21.112;2023-12-14T11:55:41;30.98;;;16.63;;
50988;SDS011;37008;52.210;21.112;2023-12-14T11:58:08;40.00;;;18.95;;
50988;SDS011;37008;52.210;21.112;2023-12-14T12:00:34;36.97;;;17.95;;
50988;SDS011;37008;52.210;21.112;2023-12-14T12:08:13;49.47;;;22.70;;
50988;SDS011;37008;52.210;21.112;2023-12-14T12:10:40;44.22;;;21.15;;
50988;SDS011;37008;52.210;21.112;2023-12-14T12:13:08;45.90;;;21.50;;
50988;SDS011;37008;52.210;21.112;2023-12-14T12:15:37;44.45;;;21.05;;
50988;SDS011;37008;52.210;21.112;2023-12-14T12:18:03;47.92;;;22.73;;
50988;SDS011;37008;52.210;21.112;2023-12-14T12:20:30;54.83;;;24.65;;
50988;SDS011;37008;52.210;21.112;2023-12-14T12:22:57;52.72;;;23.98;;
50988;SDS011;37008;52.210;21.112;2023-12-14T12:25:23;47.90;;;22.95;;
50988;SDS011;37008;52.210;21.112;2023-12-14T12:27:49;51.55;;;24.88;;
50988;SDS011;37008;52.210;21.112;2023-12-14T12:30:15;47.88;;;22.15;;
50988;SDS011;37008;52.210;21.112;2023-12-14T12:32:41;51.28;;;23.05;;
50988;SDS011;37008;52.210;21.112;2023-12-14T12:35:07;54.63;;;24.58;;
50988;SDS011;37008;52.210;21.112;2023-12-14T12:37:33;61.55;;;25.80;;
50988;SDS011;37008;52.210;21.112;2023-12-14T12:39:59;52.97;;;23.80;;
50988;SDS011;37008;52.210;21.112;2023-12-14T12:42:24;53.40;;;23.05;;
50988;SDS011;37008;52.210;21.112;2023-12-14T12:44:51;50.97;;;23.40;;
50988;SDS011;37008;52.210;21.112;2023-12-14T12:47:17;48.15;;;21.52;;
50988;SDS011;37008;52.210;21.112;2023-12-14T12:49:43;53.85;;;23.05;;
50988;SDS011;37008;52.210;21.112;2023-12-14T12:52:08;54.05;;;23.33;;
50988;SDS011;37008;52.210;21.112;2023-12-14T12:54:34;43.63;;;21.30;;
50988;SDS011;37008;52.210;21.112;2023-12-14T12:57:00;49.78;;;23.08;;
50988;SDS011;37008;52.210;21.112;2023-12-14T12:59:26;49.25;;;20.10;;
50988;SDS011;37008;52.210;21.112;2023-12-14T13:01:52;57.15;;;23.73;;
50988;SDS011;37008;52.210;21.112;2023-12-14T13:04:22;67.28;;;25.10;;
50988;SDS011;37008;52.210;21.112;2023-12-14T13:06:48;58.38;;;25.08;;
50988;SDS011;37008;52.210;21.112;2023-12-14T13:09:15;67.13;;;25.25;;
50988;SDS011;37008;52.210;21.112;2023-12-14T13:11:46;65.05;;;27.60;;
50988;SDS011;37008;52.210;21.112;2023-12-14T13:14:12;64.68;;;26.70;;
50988;SDS011;37008;52.210;21.112;2023-12-14T13:16:40;72.65;;;26.40;;
50988;SDS011;37008;52.210;21.112;2023-12-14T13:19:06;83.85;;;26.90;;
50988;SDS011;37008;52.210;21.112;2023-12-14T13:21:32;70.03;;;27.83;;
50988;SDS011;37008;52.210;21.112;2023-12-14T13:24:01;66.03;;;26.20;;
50988;SDS011;37008;52.210;21.112;2023-12-14T13:26:27;67.97;;;25.48;;
50988;SDS011;37008;52.210;21.112;2023-12-14T13:28:53;58.03;;;22.73;;
50988;SDS011;37008;52.210;21.112;2023-12-14T13:31:19;42.92;;;17.17;;
50988;SDS011;37008;52.210;21.112;2023-12-14T13:33:45;50.92;;;21.38;;
50988;SDS011;37008;52.210;21.112;2023-12-14T13:36:12;51.95;;;21.60;;
50988;SDS011;37008;52.210;21.112;2023-12-14T13:38:38;44.05;;;20.02;;
50988;SDS011;37008;52.210;21.112;2023-12-14T13:41:04;48.08;;;22.17;;
50988;SDS011;37008;52.210;21.112;2023-12-14T13:43:30;53.30;;;22.52;;
50988;SDS011;37008;52.210;21.112;2023-12-14T13:45:56;55.35;;;22.42;;
50988;SDS011;37008;52.210;21.112;2023-12-14T13:48:25;53.63;;;23.63;;
50988;SDS011;37008;52.210;21.112;2023-12-14T13:50:51;55.78;;;22.73;;
50988;SDS011;37008;52.210;21.112;2023-12-14T13:53:18;55.00;;;22.60;;
50988;SDS011;37008;52.210;21.112;2023-12-14T13:55:43;58.53;;;24.35;;
50988;SDS011;37008;52.210;21.112;2023-12-14T13:58:10;62.78;;;25.67;;
50988;SDS011;37008;52.210;21.112;2023-12-14T14:00:35;60.80;;;25.08;;
50988;SDS011;37008;52.210;21.112;2023-12-14T14:03:02;69.32;;;27.92;;
50988;SDS011;37008;52.210;21.112;2023-12-14T14:05:28;67.63;;;25.45;;